sensor_id;sensor_type;location;lat;lon;timestamp;temperature;humidity
13665;DHT22;6905;50.770;6.730;2024-02-16T00:14:48;12.90;99.90
13665;DHT22;6905;50.770;6.730;2024-02-16T00:20:56;12.90;99.90
13665;DHT22;6905;50.770;6.730;2024-02-16T00:23:38;12.90;99.90
13665;DHT22;6905;50.770;6.730;2024-02-16T00:29:14;12.90;99.90
13665;DHT22;6905;50.770;6.730;2024-02-16T00:31:55;12.80;99.90
13665;DHT22;6905;50.770;6.730;2024-02-16T00:34:51;12.80;99.90
13665;DHT22;6905;50.770;6.730;2024-02-16T00:37:45;12.80;99.90
13665;DHT22;6905;50.770;6.730;2024-02-16T00:40:39;12.80;99.90
13665;DHT22;6905;50.770;6.730;2024-02-16T00:43:32;12.80;99.90
13665;DHT22;6905;50.770;6.730;2024-02-16T00:46:12;12.80;99.90
13665;DHT22;6905;50.770;6.730;2024-02-16T00:54:44;12.90;99.90
13665;DHT22;6905;50.770;6.730;2024-02-16T01:00:21;12.80;99.90
13665;DHT22;6905;50.770;6.730;2024-02-16T01:03:12;12.80;99.90
13665;DHT22;6905;50.770;6.730;2024-02-16T01:20:37;12.50;99.90
13665;DHT22;6905;50.770;6.730;2024-02-16T01:23:34;12.50;99.90
13665;DHT22;6905;50.770;6.730;2024-02-16T01:26:17;12.50;99.90
13665;DHT22;6905;50.770;6.730;2024-02-16T01:28:49;12.50;99.90
13665;DHT22;6905;50.770;6.730;2024-02-16T01:31:32;12.40;99.90
13665;DHT22;6905;50.770;6.730;2024-02-16T01:34:12;12.40;99.90
13665;DHT22;6905;50.770;6.730;2024-02-16T01:57:50;12.30;99.90
13665;DHT22;6905;50.770;6.730;2024-02-16T02:00:48;12.30;99.90
13665;DHT22;6905;50.770;6.730;2024-02-16T02:03:38;12.30;99.90
13665;DHT22;6905;50.770;6.730;2024-02-16T02:06:30;12.30;99.90
13665;DHT22;6905;50.770;6.730;2024-02-16T02:09:08;12.30;99.90
13665;DHT22;6905;50.770;6.730;2024-02-16T02:11:51;12.40;99.90
13665;DHT22;6905;50.770;6.730;2024-02-16T02:14:27;12.40;99.90
13665;DHT22;6905;50.770;6.730;2024-02-16T02:17:18;12.50;99.90
13665;DHT22;6905;50.770;6.730;2024-02-16T02:20:06;12.50;99.90
13665;DHT22;6905;50.770;6.730;2024-02-16T03:10:46;12.30;99.90
13665;DHT22;6905;50.770;6.730;2024-02-16T03:13:32;12.30;99.90
13665;DHT22;6905;50.770;6.730;2024-02-16T03:16:15;12.30;99.90
13665;DHT22;6905;50.770;6.730;2024-02-16T03:19:15;12.30;99.90
13665;DHT22;6905;50.770;6.730;2024-02-16T03:21:57;12.20;99.90
13665;DHT22;6905;50.770;6.730;2024-02-16T03:24:40;12.20;99.90
13665;DHT22;6905;50.770;6.730;2024-02-16T03:36:24;12.20;99.90
13665;DHT22;6905;50.770;6.730;2024-02-16T03:39:08;12.20;99.90
13665;DHT22;6905;50.770;6.730;2024-02-16T03:42:05;12.20;99.90
13665;DHT22;6905;50.770;6.730;2024-02-16T03:44:54;12.20;99.90
13665;DHT22;6905;50.770;6.730;2024-02-16T03:47:38;12.20;99.90
13665;DHT22;6905;50.770;6.730;2024-02-16T03:50:31;12.10;99.90
13665;DHT22;6905;50.770;6.730;2024-02-16T04:13:54;12.20;99.90
13665;DHT22;6905;50.770;6.730;2024-02-16T04:16:42;12.20;99.90
13665;DHT22;6905;50.770;6.730;2024-02-16T04:19:29;12.20;99.90
13665;DHT22;6905;50.770;6.730;2024-02-16T04:22:21;12.20;99.90
13665;DHT22;6905;50.770;6.730;2024-02-16T04:25:12;12.20;99.90
13665;DHT22;6905;50.770;6.730;2024-02-16T04:27:56;12.20;99.90
13665;DHT22;6905;50.770;6.730;2024-02-16T04:33:55;12.30;99.90
13665;DHT22;6905;50.770;6.730;2024-02-16T04:36:37;12.30;99.90
13665;DHT22;6905;50.770;6.730;2024-02-16T04:39:18;12.30;99.90
13665;DHT22;6905;50.770;6.730;2024-02-16T04:41:58;12.30;99.90
13665;DHT22;6905;50.770;6.730;2024-02-16T04:44:41;12.20;99.90
13665;DHT22;6905;50.770;6.730;2024-02-16T04:47:28;12.30;99.90
13665;DHT22;6905;50.770;6.730;2024-02-16T04:53:21;12.30;99.90
13665;DHT22;6905;50.770;6.730;2024-02-16T04:55:51;12.30;99.90
13665;DHT22;6905;50.770;6.730;2024-02-16T04:58:19;12.40;99.90
13665;DHT22;6905;50.770;6.730;2024-02-16T05:00:54;12.40;99.90
13665;DHT22;6905;50.770;6.730;2024-02-16T05:03:34;12.40;99.90
13665;DHT22;6905;50.770;6.730;2024-02-16T05:06:02;12.40;99.90
13665;DHT22;6905;50.770;6.730;2024-02-16T05:11:32;12.40;99.90
13665;DHT22;6905;50.770;6.730;2024-02-16T05:14:13;12.40;99.90
13665;DHT22;6905;50.770;6.730;2024-02-16T05:16:50;12.40;99.90
13665;DHT22;6905;50.770;6.730;2024-02-16T05:19:23;12.40;99.90
13665;DHT22;6905;50.770;6.730;2024-02-16T05:28:22;12.40;99.90
13665;DHT22;6905;50.770;6.730;2024-02-16T05:30:59;12.40;99.90
13665;DHT22;6905;50.770;6.730;2024-02-16T05:33:55;12.40;99.90
13665;DHT22;6905;50.770;6.730;2024-02-16T05:36:25;12.40;99.90
13665;DHT22;6905;50.770;6.730;2024-02-16T05:38:55;12.40;99.90
13665;DHT22;6905;50.770;6.730;2024-02-16T05:41:36;12.40;99.90
13665;DHT22;6905;50.770;6.730;2024-02-16T05:47:05;12.40;99.90
13665;DHT22;6905;50.770;6.730;2024-02-16T05:49:47;12.40;99.90
13665;DHT22;6905;50.770;6.730;2024-02-16T05:58:50;12.20;99.90
13665;DHT22;6905;50.770;6.730;2024-02-16T06:01:32;12.20;99.90
13665;DHT22;6905;50.770;6.730;2024-02-16T06:33:29;11.80;99.90
13665;DHT22;6905;50.770;6.730;2024-02-16T06:36:20;11.70;99.90
13665;DHT22;6905;50.770;6.730;2024-02-16T06:39:10;11.70;99.90
13665;DHT22;6905;50.770;6.730;2024-02-16T06:41:56;11.70;99.90
13665;DHT22;6905;50.770;6.730;2024-02-16T06:47:56;11.80;99.90
13665;DHT22;6905;50.770;6.730;2024-02-16T06:50:43;11.80;99.90
13665;DHT22;6905;50.770;6.730;2024-02-16T06:53:25;11.90;99.90
13665;DHT22;6905;50.770;6.730;2024-02-16T06:56:02;11.90;99.90
13665;DHT22;6905;50.770;6.730;2024-02-16T06:58:51;12.00;99.90
13665;DHT22;6905;50.770;6.730;2024-02-16T07:04:39;11.90;99.90
13665;DHT22;6905;50.770;6.730;2024-02-16T07:16:27;11.90;99.90
13665;DHT22;6905;50.770;6.730;2024-02-16T07:19:10;11.90;99.90
